Řízení letového provozu České republiky  
Aktualizace dat:  21.01.2020 23:53:27 UTC English version
   METEO Zobrazení stránky:  21.01.2020 23:53:12 UTC  
vysvětlivky
METAR EDDB 212350Z 26008KT 9999 BKN012 02/00 Q1034 NOSIG=
METAR EDDC 212350Z 21007KT CAVOK M03/M04 Q1035=
METAR EDDE 212350Z 25009KT CAVOK M04/M06 Q1036=
METAR EDDF 212350Z 18001KT CAVOK M04/M05 Q1037 NOSIG=
METAR EDDM 212350Z 10004KT 070V130 4000 BR OVC004 M03/M04 Q1036 NOSIG=
METAR EDDN 212350Z 11003KT 080V140 4500 BR OVC004 M02/M03 Q1037=
METAR EDDP 212350Z 26007KT CAVOK M02/M04 Q1036 NOSIG=
METAR EDDT 212350Z 25010KT 9999 BKN012 03/00 Q1033=
METAR EDQM NIL
METAR EPBY 212330Z 26017KT 9000 OVC006 03/01 Q1028=
METAR EPGD 212330Z 28019KT 9999 BKN012 05/03 Q1022=
METAR EPKK 212330Z 25010KT CAVOK M01/M03 Q1032=
METAR EPKT 212330Z 24006KT 5000 BR NSC M02/M04 Q1033=
METAR EPLL 212330Z 27016KT 9999 OVC012 01/M02 Q1030=
METAR EPPO 212330Z 26010KT 9999 OVC011 02/M01 Q1031=
METAR EPRZ 212330Z 23007KT CAVOK M01/M04 Q1032=
METAR EPWA 212330Z 26012KT 9999 BKN012 02/M01 Q1027 TEMPO BKN009=
METAR EPWR 212330Z VRB02KT CAVOK M01/M04 Q1034=
METAR LHBP 212330Z 21004KT 4300 BR BKN014 M00/M01 Q1038 NOSIG=
METAR LHSM 212315Z AUTO 00000KT 3400 BR NCD M04/M04 Q1038=
METAR LKBC 212330Z AUTO VRB02KT 0300 FZFG VV002 M03/M04 Q1036=
METAR LKCV 212300Z 20004KT 130V260 7000 OVC008 M02/M04 Q1037 NOSIG RMK GRN GRN=
METAR LKKB 212300Z 19007KT 6000 OVC005 M02/M04 Q1036 NOSIG RMK YLO=
METAR LKKU NIL
METAR LKKV 212300Z 00000KT CAVOK M07/M07 Q1035 RMK REG QNH 1031=
METAR LKLN 212330Z AUTO 18003KT 140V220 5000 BR OVC004 M03/M03 Q1037=
METAR LKMT 212330Z 23019KT 7000 OVC010 M01/M03 Q1034 NOSIG RMK REG QNH 1031=
METAR LKNA 212300Z 23004KT 180V280 0500 R31/1100D FZFG OVC001 M04/M05 Q1036 RMK RED=
METAR LKPD 212300Z 17004KT 150V230 9999 OVC008 M02/M04 Q1037 RMK GRN=
METAR LKPJ 212300Z AUTO 25005KT 9000 OVC009 M02/M04 Q1038=
METAR LKPR 212330Z 20007KT 2000 0900SE R24/P2000N R30/1700U BR BCFG VV002 M03/M04 Q1035 NOSIG RMK REG QNH 1031=
METAR LKTB 212330Z 32004KT 9999 OVC010 M01/M03 Q1037 R27/21//95 BECMG OVC009 RMK REG QNH 1031=
METAR LKVO NIL
METAR LOWI 212320Z AUTO VRB01KT 9999 NSC M05/M06 Q1036=
METAR LOWL 212320Z AUTO VRB02KT 6000 FEW004 BKN006 M01/M02 Q1037=
METAR LOWS 212320Z AUTO VRB02KT 6000 BKN003 M03/M03 Q1036=
METAR LOWW 212320Z VRB01KT 3800 BR SCT002 BKN003 M01/M01 Q1038 R88/19//95 BECMG 2000 TEMPO BKN001=
METAR LZIB 212330Z VRB02KT 0600 R31/1800N R22/1200D FZFG OVC002 M01/M01 Q1038 R13/CLRD//=
METAR LZKZ 212330Z 19008KT 5000 BR OVC006 M02/M03 Q1037=
METAR LZMC NIL
METAR LZPP 212330Z AUTO 24004KT 6000 OVC005/// M02/M03 Q1038=
METAR LZSL 212330Z VRB01KT 1600 BR OVC002 M04/M05 Q1037=
METAR LZTT 212330Z VRB02KT 0100 R27/0450N FZFG OVC001 M06/M07 Q1032=
METAR LZZI 212330Z 25003KT 230V290 4200 BR OVC004 M03/M03 Q1036=